MSR18 HECA-HELX
Flight info
| Callsign | MSR18 |
|---|---|
| Flight time | 0h 50m |
| Altitude | 33000 |
| Route | CVO A727 LXR |
| Aircraft | B738/M-SDE2E3FGHIRWXY/LB1 |
Departure
| Time | 2026-05-05 14:54 |
|---|---|
| Airport | Cairo International Airport (HECA) |
Arrival
| Time | 2026-05-05 15:44 |
|---|---|
| Airport | Luxor International Airport (HELX) |
| Time | Latitude | Longitude | Altitude | Speed | Heading |
|---|---|---|---|---|---|
| 2026-05-05 14:17 | 30.10726 | 31.39336 | 369 ft | 0 kts | 255° |
| 2026-05-05 14:24 | 30.10728 | 31.39342 | 369 ft | 0 kts | 255° |
| 2026-05-05 14:42 | 30.10731 | 31.39356 | 369 ft | 4 kts | 252° |
| 2026-05-05 14:42 | 30.10740 | 31.39385 | 369 ft | 4 kts | 243° |
| 2026-05-05 14:43 | 30.10755 | 31.39411 | 369 ft | 4 kts | 225° |
| 2026-05-05 14:43 | 30.10775 | 31.39427 | 369 ft | 4 kts | 180° |
| 2026-05-05 14:43 | 30.10783 | 31.39427 | 369 ft | 0 kts | 165° |
| 2026-05-05 14:45 | 30.10782 | 31.39427 | 369 ft | 1 kts | 165° |
| 2026-05-05 14:45 | 30.10761 | 31.39433 | 369 ft | 7 kts | 166° |
| 2026-05-05 14:46 | 30.10708 | 31.39451 | 369 ft | 10 kts | 165° |
| 2026-05-05 14:46 | 30.10637 | 31.39472 | 369 ft | 12 kts | 165° |
| 2026-05-05 14:46 | 30.10604 | 31.39547 | 369 ft | 12 kts | 81° |
| 2026-05-05 14:46 | 30.10626 | 31.39648 | 369 ft | 14 kts | 75° |
| 2026-05-05 14:47 | 30.10586 | 31.39728 | 369 ft | 14 kts | 166° |
| 2026-05-05 14:47 | 30.10496 | 31.39753 | 373 ft | 13 kts | 166° |
| 2026-05-05 14:47 | 30.10409 | 31.39780 | 377 ft | 13 kts | 165° |
| 2026-05-05 14:47 | 30.10329 | 31.39753 | 381 ft | 12 kts | 226° |
| 2026-05-05 14:48 | 30.10271 | 31.39682 | 385 ft | 12 kts | 228° |
| 2026-05-05 14:48 | 30.10216 | 31.39609 | 387 ft | 12 kts | 229° |
| 2026-05-05 14:48 | 30.10149 | 31.39566 | 388 ft | 12 kts | 168° |
| 2026-05-05 14:48 | 30.10089 | 31.39622 | 388 ft | 6 kts | 138° |
| 2026-05-05 14:49 | 30.10057 | 31.39655 | 388 ft | 6 kts | 139° |
| 2026-05-05 14:49 | 30.10032 | 31.39680 | 388 ft | 0 kts | 138° |
| 2026-05-05 14:49 | 30.10030 | 31.39682 | 388 ft | 0 kts | 138° |
| 2026-05-05 14:49 | 30.10029 | 31.39683 | 388 ft | 1 kts | 138° |
| 2026-05-05 14:50 | 30.10028 | 31.39684 | 388 ft | 0 kts | 138° |
| 2026-05-05 14:51 | 30.10010 | 31.39710 | 387 ft | 12 kts | 119° |
| 2026-05-05 14:51 | 30.10006 | 31.39818 | 387 ft | 14 kts | 78° |
| 2026-05-05 14:52 | 30.10036 | 31.39922 | 387 ft | 13 kts | 52° |
| 2026-05-05 14:52 | 30.10056 | 31.39947 | 387 ft | 0 kts | 47° |
| 2026-05-05 14:52 | 30.10057 | 31.39948 | 387 ft | 0 kts | 47° |
| 2026-05-05 14:52 | 30.10060 | 31.39951 | 387 ft | 1 kts | 47° |
| 2026-05-05 14:53 | 30.10061 | 31.39953 | 387 ft | 0 kts | 47° |
| 2026-05-05 14:53 | 30.10062 | 31.39954 | 387 ft | 1 kts | 47° |
| 2026-05-05 14:53 | 30.10214 | 31.40146 | 387 ft | 72 kts | 47° |
| 2026-05-05 14:53 | 30.10723 | 31.40818 | 386 ft | 147 kts | 49° |
| 2026-05-05 14:54 | 30.11453 | 31.41872 | 770 ft | 181 kts | 49° |
| 2026-05-05 14:54 | 30.12243 | 31.43067 | 1555 ft | 195 kts | 55° |
| 2026-05-05 14:54 | 30.12556 | 31.44614 | 2513 ft | 208 kts | 95° |
| 2026-05-05 14:54 | 30.11931 | 31.46140 | 3194 ft | 218 kts | 134° |
| 2026-05-05 14:55 | 30.10591 | 31.46982 | 3620 ft | 232 kts | 171° |
| 2026-05-05 14:55 | 30.08920 | 31.47198 | 3876 ft | 251 kts | 176° |
| 2026-05-05 14:55 | 30.07121 | 31.47417 | 4397 ft | 259 kts | 176° |
| 2026-05-05 14:55 | 30.05319 | 31.47633 | 4834 ft | 273 kts | 176° |
| 2026-05-05 14:56 | 30.03382 | 31.47862 | 5417 ft | 282 kts | 175° |
| 2026-05-05 14:56 | 30.01422 | 31.48094 | 6275 ft | 287 kts | 175° |
| 2026-05-05 14:56 | 29.99442 | 31.48329 | 7165 ft | 286 kts | 176° |
| 2026-05-05 14:56 | 29.97438 | 31.48567 | 7845 ft | 294 kts | 176° |
| 2026-05-05 14:57 | 29.95383 | 31.48809 | 8619 ft | 298 kts | 176° |
| 2026-05-05 14:57 | 29.93315 | 31.49053 | 9463 ft | 301 kts | 177° |
| 2026-05-05 14:57 | 29.91219 | 31.49300 | 10226 ft | 304 kts | 177° |
| 2026-05-05 14:57 | 29.89058 | 31.49553 | 10592 ft | 324 kts | 177° |
| 2026-05-05 14:58 | 29.86731 | 31.49823 | 10777 ft | 348 kts | 177° |
| 2026-05-05 14:58 | 29.84247 | 31.50114 | 10969 ft | 368 kts | 177° |
| 2026-05-05 14:58 | 29.81657 | 31.50420 | 11416 ft | 379 kts | 177° |
| 2026-05-05 14:58 | 29.79013 | 31.50735 | 12031 ft | 385 kts | 177° |
| 2026-05-05 14:59 | 29.76338 | 31.51053 | 12696 ft | 388 kts | 178° |
| 2026-05-05 14:59 | 29.73641 | 31.51371 | 13342 ft | 392 kts | 178° |
| 2026-05-05 14:59 | 29.70913 | 31.51693 | 13945 ft | 397 kts | 178° |
| 2026-05-05 14:59 | 29.68164 | 31.52266 | 14487 ft | 406 kts | 170° |
| 2026-05-05 15:00 | 29.65430 | 31.53145 | 15050 ft | 410 kts | 168° |
| 2026-05-05 15:00 | 29.63613 | 31.53762 | 15449 ft | 412 kts | 168° |
| 2026-05-05 15:00 | 29.59924 | 31.55032 | 16210 ft | 416 kts | 168° |
| 2026-05-05 15:00 | 29.57145 | 31.55979 | 16763 ft | 418 kts | 168° |
| 2026-05-05 15:01 | 29.54376 | 31.56910 | 17297 ft | 422 kts | 169° |
| 2026-05-05 15:01 | 29.51546 | 31.57852 | 17828 ft | 425 kts | 169° |
| 2026-05-05 15:01 | 29.48694 | 31.58792 | 18366 ft | 428 kts | 169° |
| 2026-05-05 15:01 | 29.45818 | 31.59735 | 18799 ft | 431 kts | 169° |
| 2026-05-05 15:02 | 29.42924 | 31.60683 | 19286 ft | 433 kts | 169° |
| 2026-05-05 15:02 | 29.40029 | 31.61631 | 19763 ft | 435 kts | 169° |
| 2026-05-05 15:02 | 29.37112 | 31.62588 | 20249 ft | 437 kts | 170° |
| 2026-05-05 15:02 | 29.34172 | 31.63549 | 20663 ft | 442 kts | 170° |
| 2026-05-05 15:03 | 29.31208 | 31.64515 | 21145 ft | 443 kts | 170° |
| 2026-05-05 15:03 | 29.28243 | 31.65483 | 21627 ft | 445 kts | 170° |
| 2026-05-05 15:03 | 29.25256 | 31.66457 | 22084 ft | 447 kts | 170° |
| 2026-05-05 15:03 | 29.22259 | 31.67434 | 22519 ft | 449 kts | 170° |
| 2026-05-05 15:04 | 29.19240 | 31.68418 | 22941 ft | 452 kts | 171° |
| 2026-05-05 15:04 | 29.16209 | 31.69405 | 23352 ft | 454 kts | 171° |
| 2026-05-05 15:04 | 29.13157 | 31.70399 | 23743 ft | 457 kts | 171° |
| 2026-05-05 15:04 | 29.10096 | 31.71396 | 24089 ft | 459 kts | 171° |
| 2026-05-05 15:05 | 29.03933 | 31.73401 | 24802 ft | 461 kts | 170° |
| 2026-05-05 15:05 | 29.00842 | 31.74406 | 25182 ft | 462 kts | 170° |
| 2026-05-05 15:05 | 28.97744 | 31.75410 | 25494 ft | 465 kts | 171° |
| 2026-05-05 15:06 | 28.94625 | 31.76410 | 25800 ft | 467 kts | 171° |
| 2026-05-05 15:06 | 28.91490 | 31.77405 | 26113 ft | 469 kts | 171° |
| 2026-05-05 15:06 | 28.88339 | 31.78402 | 26431 ft | 470 kts | 171° |
| 2026-05-05 15:06 | 28.85180 | 31.79402 | 26738 ft | 472 kts | 171° |
| 2026-05-05 15:07 | 28.82009 | 31.80405 | 27023 ft | 474 kts | 171° |
| 2026-05-05 15:07 | 28.78822 | 31.81415 | 27310 ft | 476 kts | 171° |
| 2026-05-05 15:07 | 28.75629 | 31.82427 | 27616 ft | 477 kts | 171° |
| 2026-05-05 15:07 | 28.72425 | 31.83443 | 27890 ft | 479 kts | 171° |
| 2026-05-05 15:08 | 28.69208 | 31.84461 | 28152 ft | 481 kts | 171° |
| 2026-05-05 15:08 | 28.65977 | 31.85484 | 28404 ft | 483 kts | 171° |
| 2026-05-05 15:08 | 28.62732 | 31.86510 | 28695 ft | 484 kts | 171° |
| 2026-05-05 15:08 | 28.59533 | 31.87523 | 29077 ft | 483 kts | 171° |
| 2026-05-05 15:09 | 28.56303 | 31.88545 | 29522 ft | 481 kts | 171° |
| 2026-05-05 15:09 | 28.53086 | 31.89563 | 29947 ft | 479 kts | 171° |
| 2026-05-05 15:09 | 28.49876 | 31.90577 | 30301 ft | 478 kts | 171° |
| 2026-05-05 15:09 | 28.46679 | 31.91586 | 30704 ft | 475 kts | 171° |
| 2026-05-05 15:10 | 28.43498 | 31.92588 | 31070 ft | 474 kts | 172° |
| 2026-05-05 15:10 | 28.40324 | 31.93587 | 31381 ft | 473 kts | 172° |
| 2026-05-05 15:10 | 28.37153 | 31.94584 | 31686 ft | 473 kts | 172° |
| 2026-05-05 15:10 | 28.33987 | 31.95591 | 31966 ft | 472 kts | 171° |
| 2026-05-05 15:11 | 28.30825 | 31.96589 | 32310 ft | 470 kts | 172° |
| 2026-05-05 15:11 | 28.27677 | 31.97572 | 32675 ft | 468 kts | 172° |
| 2026-05-05 15:11 | 28.24540 | 31.98552 | 33008 ft | 467 kts | 172° |
| 2026-05-05 15:12 | 28.18274 | 32.00511 | 33077 ft | 466 kts | 172° |
| 2026-05-05 15:12 | 28.12034 | 32.02467 | 33082 ft | 465 kts | 172° |
| 2026-05-05 15:13 | 28.05813 | 32.04414 | 33087 ft | 464 kts | 172° |
| 2026-05-05 15:13 | 27.99592 | 32.06371 | 33081 ft | 464 kts | 172° |
| 2026-05-05 15:14 | 27.93389 | 32.08358 | 33054 ft | 463 kts | 171° |
| 2026-05-05 15:14 | 27.87197 | 32.10342 | 33055 ft | 462 kts | 171° |
| 2026-05-05 15:15 | 27.81007 | 32.12318 | 33052 ft | 462 kts | 171° |
| 2026-05-05 15:15 | 27.74820 | 32.14289 | 33043 ft | 462 kts | 171° |
| 2026-05-05 15:16 | 27.68626 | 32.16259 | 33028 ft | 462 kts | 171° |
| 2026-05-05 15:16 | 27.62432 | 32.18228 | 33046 ft | 462 kts | 171° |
| 2026-05-05 15:17 | 27.56249 | 32.20190 | 33010 ft | 462 kts | 171° |
| 2026-05-05 15:17 | 27.50048 | 32.22156 | 33007 ft | 463 kts | 171° |
| 2026-05-05 15:18 | 27.43847 | 32.24121 | 33020 ft | 463 kts | 171° |
| 2026-05-05 15:18 | 27.37646 | 32.26083 | 33002 ft | 463 kts | 171° |
| 2026-05-05 15:19 | 27.31480 | 32.28032 | 33004 ft | 463 kts | 171° |
| 2026-05-05 15:19 | 27.25275 | 32.29991 | 32990 ft | 463 kts | 171° |
| 2026-05-05 15:19 | 27.22145 | 32.30977 | 32412 ft | 470 kts | 171° |
| 2026-05-05 15:20 | 27.19008 | 32.31967 | 31773 ft | 468 kts | 171° |
| 2026-05-05 15:20 | 27.15875 | 32.32958 | 31085 ft | 468 kts | 171° |
| 2026-05-05 15:20 | 27.12741 | 32.33948 | 30383 ft | 468 kts | 171° |
| 2026-05-05 15:20 | 27.09618 | 32.34935 | 29864 ft | 463 kts | 171° |
| 2026-05-05 15:21 | 27.06530 | 32.35912 | 29271 ft | 459 kts | 171° |
| 2026-05-05 15:21 | 27.03470 | 32.36879 | 28736 ft | 454 kts | 171° |
| 2026-05-05 15:21 | 27.00446 | 32.37833 | 28222 ft | 449 kts | 171° |
| 2026-05-05 15:21 | 26.97451 | 32.38776 | 27700 ft | 445 kts | 171° |
| 2026-05-05 15:22 | 26.94480 | 32.39711 | 27205 ft | 441 kts | 171° |
| 2026-05-05 15:22 | 26.91538 | 32.40635 | 26684 ft | 437 kts | 171° |
| 2026-05-05 15:22 | 26.88619 | 32.41551 | 26188 ft | 434 kts | 170° |
| 2026-05-05 15:22 | 26.85721 | 32.42461 | 25688 ft | 431 kts | 170° |
| 2026-05-05 15:23 | 26.82847 | 32.43362 | 25189 ft | 428 kts | 170° |
| 2026-05-05 15:23 | 26.79986 | 32.44258 | 24688 ft | 426 kts | 170° |
| 2026-05-05 15:23 | 26.77141 | 32.45150 | 24196 ft | 424 kts | 170° |
| 2026-05-05 15:23 | 26.74303 | 32.46038 | 23695 ft | 422 kts | 170° |
| 2026-05-05 15:24 | 26.71477 | 32.46922 | 23134 ft | 421 kts | 170° |
| 2026-05-05 15:24 | 26.68670 | 32.47801 | 22604 ft | 418 kts | 170° |
| 2026-05-05 15:24 | 26.65880 | 32.48674 | 22113 ft | 415 kts | 169° |
| 2026-05-05 15:24 | 26.63114 | 32.49540 | 21607 ft | 411 kts | 169° |
| 2026-05-05 15:25 | 26.60369 | 32.50398 | 21135 ft | 408 kts | 169° |
| 2026-05-05 15:25 | 26.57641 | 32.51250 | 20647 ft | 405 kts | 169° |
| 2026-05-05 15:25 | 26.54937 | 32.52094 | 20172 ft | 402 kts | 169° |
| 2026-05-05 15:25 | 26.52248 | 32.52934 | 19693 ft | 400 kts | 169° |
| 2026-05-05 15:26 | 26.49572 | 32.53769 | 19218 ft | 398 kts | 169° |
| 2026-05-05 15:26 | 26.46904 | 32.54597 | 18711 ft | 397 kts | 169° |
| 2026-05-05 15:26 | 26.44260 | 32.55416 | 18234 ft | 394 kts | 169° |
| 2026-05-05 15:26 | 26.41626 | 32.56237 | 17736 ft | 391 kts | 169° |
| 2026-05-05 15:27 | 26.39015 | 32.57053 | 17255 ft | 389 kts | 169° |
| 2026-05-05 15:27 | 26.36419 | 32.57864 | 16775 ft | 386 kts | 169° |
| 2026-05-05 15:27 | 26.33839 | 32.58667 | 16310 ft | 383 kts | 169° |
| 2026-05-05 15:27 | 26.31284 | 32.59463 | 15866 ft | 380 kts | 169° |
| 2026-05-05 15:28 | 26.28743 | 32.60258 | 15366 ft | 378 kts | 169° |
| 2026-05-05 15:28 | 26.26220 | 32.61043 | 14941 ft | 375 kts | 169° |
| 2026-05-05 15:28 | 26.23744 | 32.61808 | 14482 ft | 374 kts | 169° |
| 2026-05-05 15:28 | 26.21245 | 32.62581 | 14025 ft | 372 kts | 169° |
| 2026-05-05 15:29 | 26.18752 | 32.63352 | 13544 ft | 371 kts | 169° |
| 2026-05-05 15:29 | 26.16274 | 32.64120 | 13067 ft | 369 kts | 169° |
| 2026-05-05 15:29 | 26.13805 | 32.64885 | 12607 ft | 367 kts | 169° |
| 2026-05-05 15:29 | 26.11354 | 32.65644 | 12155 ft | 365 kts | 168° |
| 2026-05-05 15:30 | 26.08919 | 32.66398 | 11709 ft | 362 kts | 168° |
| 2026-05-05 15:30 | 26.06497 | 32.67148 | 11272 ft | 361 kts | 168° |
| 2026-05-05 15:30 | 26.04089 | 32.67893 | 10898 ft | 357 kts | 168° |
| 2026-05-05 15:30 | 26.01739 | 32.68624 | 10707 ft | 345 kts | 168° |
| 2026-05-05 15:31 | 25.99451 | 32.69332 | 10475 ft | 338 kts | 168° |
| 2026-05-05 15:31 | 25.97215 | 32.70021 | 10309 ft | 329 kts | 168° |
| 2026-05-05 15:31 | 25.95040 | 32.70693 | 10150 ft | 321 kts | 168° |
| 2026-05-05 15:31 | 25.92917 | 32.71349 | 10004 ft | 313 kts | 168° |
| 2026-05-05 15:32 | 25.90846 | 32.71989 | 9911 ft | 303 kts | 168° |
| 2026-05-05 15:32 | 25.88847 | 32.72606 | 9576 ft | 301 kts | 168° |
| 2026-05-05 15:32 | 25.86806 | 32.73232 | 9158 ft | 305 kts | 168° |
| 2026-05-05 15:32 | 25.84764 | 32.73861 | 8791 ft | 301 kts | 167° |
| 2026-05-05 15:33 | 25.82775 | 32.74475 | 8483 ft | 293 kts | 167° |
| 2026-05-05 15:33 | 25.80842 | 32.75071 | 8194 ft | 284 kts | 167° |
| 2026-05-05 15:33 | 25.78961 | 32.75651 | 7916 ft | 276 kts | 167° |
| 2026-05-05 15:33 | 25.77135 | 32.76214 | 7660 ft | 269 kts | 167° |
| 2026-05-05 15:34 | 25.75331 | 32.76419 | 7378 ft | 257 kts | 195° |
| 2026-05-05 15:34 | 25.73723 | 32.75703 | 7181 ft | 248 kts | 218° |
| 2026-05-05 15:34 | 25.72377 | 32.74487 | 6962 ft | 255 kts | 225° |
| 2026-05-05 15:34 | 25.71026 | 32.73128 | 6688 ft | 268 kts | 226° |
| 2026-05-05 15:35 | 25.69642 | 32.71730 | 6397 ft | 269 kts | 227° |
| 2026-05-05 15:35 | 25.68275 | 32.70354 | 6091 ft | 269 kts | 225° |
| 2026-05-05 15:35 | 25.66890 | 32.68967 | 5807 ft | 268 kts | 227° |
| 2026-05-05 15:35 | 25.65507 | 32.67585 | 5519 ft | 268 kts | 225° |
| 2026-05-05 15:36 | 25.64121 | 32.66204 | 5229 ft | 268 kts | 225° |
| 2026-05-05 15:36 | 25.62733 | 32.64824 | 4947 ft | 268 kts | 225° |
| 2026-05-05 15:36 | 25.61344 | 32.63444 | 4664 ft | 268 kts | 226° |
| 2026-05-05 15:36 | 25.59957 | 32.62068 | 4396 ft | 268 kts | 225° |
| 2026-05-05 15:37 | 25.58573 | 32.60695 | 4124 ft | 266 kts | 226° |
| 2026-05-05 15:37 | 25.57194 | 32.59328 | 3863 ft | 265 kts | 225° |
| 2026-05-05 15:37 | 25.55820 | 32.57968 | 3591 ft | 265 kts | 225° |
| 2026-05-05 15:37 | 25.54446 | 32.56607 | 3333 ft | 265 kts | 226° |
| 2026-05-05 15:38 | 25.53029 | 32.55325 | 3204 ft | 265 kts | 213° |
| 2026-05-05 15:38 | 25.51248 | 32.54816 | 3211 ft | 270 kts | 181° |
| 2026-05-05 15:38 | 25.49420 | 32.55354 | 3196 ft | 278 kts | 150° |
| 2026-05-05 15:38 | 25.48060 | 32.56817 | 3210 ft | 273 kts | 117° |
| 2026-05-05 15:39 | 25.47554 | 32.58766 | 3202 ft | 257 kts | 85° |
| 2026-05-05 15:39 | 25.47943 | 32.60592 | 3189 ft | 234 kts | 56° |
| 2026-05-05 15:39 | 25.48898 | 32.61914 | 3200 ft | 208 kts | 31° |
| 2026-05-05 15:39 | 25.50092 | 32.62655 | 3136 ft | 192 kts | 20° |
| 2026-05-05 15:40 | 25.50883 | 32.63070 | 3019 ft | 187 kts | 19° |
| 2026-05-05 15:40 | 25.52055 | 32.63643 | 2855 ft | 181 kts | 19° |
| 2026-05-05 15:40 | 25.53184 | 32.64173 | 2714 ft | 176 kts | 19° |
| 2026-05-05 15:40 | 25.54322 | 32.64703 | 2565 ft | 176 kts | 17° |
| 2026-05-05 15:41 | 25.55409 | 32.65211 | 2428 ft | 165 kts | 17° |
| 2026-05-05 15:41 | 25.56436 | 32.65688 | 2230 ft | 157 kts | 18° |
| 2026-05-05 15:41 | 25.57416 | 32.66143 | 2095 ft | 148 kts | 18° |
| 2026-05-05 15:41 | 25.58339 | 32.66573 | 1893 ft | 140 kts | 17° |
| 2026-05-05 15:42 | 25.59210 | 32.66979 | 1687 ft | 132 kts | 15° |
| 2026-05-05 15:42 | 25.60059 | 32.67372 | 1526 ft | 133 kts | 17° |
| 2026-05-05 15:42 | 25.60915 | 32.67771 | 1351 ft | 136 kts | 17° |
| 2026-05-05 15:42 | 25.61846 | 32.68204 | 1186 ft | 147 kts | 17° |
| 2026-05-05 15:43 | 25.62764 | 32.68633 | 998 ft | 140 kts | 18° |
| 2026-05-05 15:43 | 25.63659 | 32.69043 | 817 ft | 137 kts | 20° |
| 2026-05-05 15:43 | 25.64551 | 32.69465 | 657 ft | 145 kts | 19° |
| 2026-05-05 15:43 | 25.65501 | 32.69895 | 420 ft | 145 kts | 20° |
| 2026-05-05 15:44 | 25.66385 | 32.70316 | 299 ft | 129 kts | 20° |
| 2026-05-05 15:44 | 25.67117 | 32.70642 | 287 ft | 93 kts | 24° |
| 2026-05-05 15:44 | 25.67568 | 32.70861 | 286 ft | 49 kts | 21° |
| 2026-05-05 15:44 | 25.67745 | 32.70933 | 285 ft | 6 kts | 354° |
| 2026-05-05 15:45 | 25.67771 | 32.70914 | 285 ft | 11 kts | 310° |
| 2026-05-05 15:45 | 25.67805 | 32.70794 | 284 ft | 15 kts | 250° |
| 2026-05-05 15:45 | 25.67691 | 32.70739 | 288 ft | 24 kts | 202° |
| 2026-05-05 15:45 | 25.67591 | 32.70692 | 286 ft | 9 kts | 202° |
| 2026-05-05 15:46 | 25.67571 | 32.70683 | 286 ft | 9 kts | 202° |
| 2026-05-05 15:46 | 25.67490 | 32.70646 | 286 ft | 8 kts | 203° |
| 2026-05-05 15:46 | 25.67481 | 32.70641 | 286 ft | 0 kts | 203° |
| 2026-05-05 15:46 | 25.67467 | 32.70584 | 286 ft | 17 kts | 283° |
| 2026-05-05 15:47 | 25.67516 | 32.70468 | 290 ft | 12 kts | 296° |
| 2026-05-05 15:47 | 25.67520 | 32.70390 | 291 ft | 11 kts | 225° |
| 2026-05-05 15:47 | 25.67451 | 32.70346 | 287 ft | 12 kts | 206° |
| 2026-05-05 15:47 | 25.67380 | 32.70305 | 288 ft | 11 kts | 209° |
| 2026-05-05 15:48 | 25.67384 | 32.70230 | 290 ft | 11 kts | 295° |
| 2026-05-05 15:48 | 25.67402 | 32.70187 | 290 ft | 0 kts | 295° |